Time;durP1;ratioP1;P1;durP2;ratioP2;P2;SDS_P1;SDS_P2;PMS_P1;PMS_P2;Temp;Humidity;BMP_temperature;BMP_pressure;BME280_temperature;BME280_humidity;BME280_pressure;Samples;Min_cycle;Max_cycle;Signal;HPM_P1;HPM_P2
2022/04/17 00:00:55;;;;;;;3.97;3.57;;;;;;;;;;5073993;28;20208;-81
2022/04/17 00:03:23;;;;;;;3.77;3.37;;;;;;;;;;5073802;28;20201;-81
2022/04/17 00:05:56;;;;;;;3.60;3.30;;;;;;;;;;5073934;28;20246;-81
2022/04/17 00:08:28;;;;;;;5.10;3.60;;;;;;;;;;5073987;28;20197;-81
2022/04/17 00:10:55;;;;;;;3.90;3.50;;;;;;;;;;5073871;28;20202;-81
2022/04/17 00:13:22;;;;;;;3.57;3.23;;;;;;;;;;5074118;28;20204;-81
2022/04/17 00:15:51;;;;;;;4.83;4.37;;;;;;;;;;5073732;28;20208;-81
2022/04/17 00:18:18;;;;;;;4.60;4.13;;;;;;;;;;5073862;28;20205;-81
2022/04/17 00:20:51;;;;;;;4.03;3.73;;;;;;;;;;5073594;28;20200;-81
2022/04/17 00:23:18;;;;;;;6.27;3.90;;;;;;;;;;5073767;28;20204;-81
2022/04/17 00:25:47;;;;;;;11.47;3.77;;;;;;;;;;5073236;28;20225;-81
2022/04/17 00:28:14;;;;;;;4.30;4.00;;;;;;;;;;5073688;28;20768;-82
2022/04/17 00:30:42;;;;;;;4.30;3.90;;;;;;;;;;5073406;28;20203;-81
2022/04/17 00:33:09;;;;;;;5.13;4.60;;;;;;;;;;5073578;28;20201;-81
2022/04/17 00:35:36;;;;;;;4.10;3.70;;;;;;;;;;5073370;28;20203;-81
2022/04/17 00:38:04;;;;;;;4.80;4.40;;;;;;;;;;5073044;28;20233;-81
2022/04/17 00:40:37;;;;;;;5.23;4.73;;;;;;;;;;5073223;28;20258;-81
2022/04/17 00:43:19;;;;;;;5.47;4.97;;;;;;;;;;5073363;28;20209;-81
2022/04/17 00:45:46;;;;;;;5.10;4.70;;;;;;;;;;5073141;28;20300;-81
2022/04/17 00:48:13;;;;;;;5.13;4.57;;;;;;;;;;5073293;28;20640;-81
2022/04/17 00:50:41;;;;;;;5.67;4.83;;;;;;;;;;5073016;28;20234;-81
2022/04/17 00:53:08;;;;;;;4.87;4.47;;;;;;;;;;5073449;28;20202;-81
2022/04/17 00:55:35;;;;;;;5.97;5.37;;;;;;;;;;5072930;28;20194;-81
2022/04/17 00:58:03;;;;;;;5.77;4.70;;;;;;;;;;5073091;28;20204;-81
2022/04/17 01:00:33;;;;;;;5.13;4.63;;;;;;;;;;5073158;28;20335;-81
2022/04/17 01:03:06;;;;;;;7.00;5.03;;;;;;;;;;5072923;28;20201;-81
2022/04/17 01:05:33;;;;;;;5.27;4.77;;;;;;;;;;5072643;28;20222;-81
2022/04/17 01:08:00;;;;;;;8.87;5.37;;;;;;;;;;5072589;28;20209;-81
2022/04/17 01:10:28;;;;;;;5.73;4.97;;;;;;;;;;5072654;28;20237;-81
2022/04/17 01:12:55;;;;;;;6.10;4.63;;;;;;;;;;5072793;28;20201;-80
2022/04/17 01:15:22;;;;;;;7.37;5.60;;;;;;;;;;5072134;28;20197;-81
2022/04/17 01:17:51;;;;;;;7.30;6.23;;;;;;;;;;5072662;28;20256;-81
2022/04/17 01:20:19;;;;;;;5.60;5.10;;;;;;;;;;5072491;28;20730;-81
2022/04/17 01:22:51;;;;;;;5.93;5.33;;;;;;;;;;5072963;28;20307;-81
2022/04/17 01:28:17;;;;;;;6.07;5.47;;;;;;;;;;5011053;28;20200;-81
2022/04/17 01:30:52;;;;;;;6.13;5.23;;;;;;;;;;5010359;28;20200;-81
2022/04/17 01:33:20;;;;;;;5.83;5.20;;;;;;;;;;5041270;28;20215;-81
2022/04/17 01:35:47;;;;;;;5.87;5.30;;;;;;;;;;5072225;28;20209;-81
2022/04/17 01:38:16;;;;;;;5.70;4.73;;;;;;;;;;5071932;28;20236;-81
2022/04/17 01:40:43;;;;;;;6.27;5.37;;;;;;;;;;5072071;28;20200;-81
2022/04/17 01:43:10;;;;;;;7.70;4.77;;;;;;;;;;5072286;28;20204;-81
2022/04/17 01:45:38;;;;;;;6.10;5.47;;;;;;;;;;5071682;28;20227;-81
2022/04/17 01:48:06;;;;;;;5.63;5.10;;;;;;;;;;5072444;28;20196;-82
2022/04/17 01:50:36;;;;;;;5.73;5.23;;;;;;;;;;5071805;28;20201;-81
2022/04/17 01:53:03;;;;;;;5.60;5.07;;;;;;;;;;5072404;28;20234;-81
2022/04/17 01:55:32;;;;;;;5.83;5.23;;;;;;;;;;5071938;28;20254;-82
2022/04/17 01:57:59;;;;;;;6.70;5.20;;;;;;;;;;5072056;28;20201;-81
2022/04/17 02:00:29;;;;;;;5.80;5.23;;;;;;;;;;5071868;28;20203;-81
2022/04/17 02:02:57;;;;;;;5.10;4.60;;;;;;;;;;5072048;28;20208;-81
2022/04/17 02:05:24;;;;;;;5.10;4.70;;;;;;;;;;5071625;28;20260;-81
2022/04/17 02:07:52;;;;;;;6.20;5.60;;;;;;;;;;5071759;28;20193;-82
2022/04/17 02:10:19;;;;;;;6.20;5.60;;;;;;;;;;5071775;28;20208;-82
2022/04/17 02:12:49;;;;;;;5.70;4.97;;;;;;;;;;5072156;28;20201;-81
2022/04/17 02:15:16;;;;;;;6.83;4.83;;;;;;;;;;5071808;28;20562;-81
2022/04/17 02:17:43;;;;;;;5.93;5.40;;;;;;;;;;5071876;28;20203;-81
2022/04/17 02:20:12;;;;;;;7.43;5.37;;;;;;;;;;5071667;28;20284;-81
2022/04/17 02:22:39;;;;;;;5.63;5.13;;;;;;;;;;5071589;28;20201;-81
2022/04/17 02:25:07;;;;;;;6.10;5.60;;;;;;;;;;5071562;28;20221;-81
2022/04/17 02:27:34;;;;;;;5.50;4.83;;;;;;;;;;5077763;28;20207;-81
2022/04/17 02:30:03;;;;;;;7.10;5.87;;;;;;;;;;5078225;28;20236;-81
2022/04/17 02:32:36;;;;;;;6.17;5.57;;;;;;;;;;5078418;28;20200;-82
2022/04/17 02:35:07;;;;;;;5.83;5.33;;;;;;;;;;5078163;28;20197;-81
2022/04/17 02:37:37;;;;;;;7.03;5.03;;;;;;;;;;5078166;28;20734;-81
2022/04/17 02:40:05;;;;;;;5.27;4.83;;;;;;;;;;5078472;28;20181;-81
2022/04/17 02:42:33;;;;;;;6.90;5.27;;;;;;;;;;5078089;28;20197;-81
2022/04/17 02:45:05;;;;;;;5.83;5.33;;;;;;;;;;5078017;28;20706;-81
2022/04/17 02:47:48;;;;;;;6.03;5.43;;;;;;;;;;5078217;28;20691;-81
2022/04/17 02:50:17;;;;;;;5.83;5.10;;;;;;;;;;5078113;28;20180;-81
2022/04/17 02:52:45;;;;;;;5.23;4.80;;;;;;;;;;5078032;28;20249;-81
2022/04/17 02:55:12;;;;;;;5.47;4.63;;;;;;;;;;5077956;28;20203;-81
2022/04/17 02:57:39;;;;;;;5.17;4.67;;;;;;;;;;5078177;28;20193;-81
2022/04/17 03:00:10;;;;;;;7.90;5.30;;;;;;;;;;5077987;28;20296;-81
2022/04/17 03:05:38;;;;;;;5.87;5.27;;;;;;;;;;5078051;28;20204;-81
2022/04/17 03:08:09;;;;;;;5.83;5.33;;;;;;;;;;5078112;28;20255;-81
2022/04/17 03:10:37;;;;;;;5.37;4.87;;;;;;;;;;5077532;28;20201;-81
2022/04/17 03:13:05;;;;;;;6.07;5.33;;;;;;;;;;5078379;28;20211;-81
2022/04/17 03:15:34;;;;;;;5.20;4.80;;;;;;;;;;5077809;28;20201;-81
2022/04/17 03:18:05;;;;;;;6.13;5.53;;;;;;;;;;5077907;28;20197;-81
2022/04/17 03:20:32;;;;;;;6.40;5.80;;;;;;;;;;5077615;28;20197;-82
2022/04/17 03:22:59;;;;;;;5.90;5.40;;;;;;;;;;5077717;28;20193;-81
2022/04/17 03:25:26;;;;;;;6.60;5.03;;;;;;;;;;5077727;28;20315;-82
2022/04/17 03:27:54;;;;;;;6.10;5.57;;;;;;;;;;5077645;28;20203;-81
2022/04/17 03:30:21;;;;;;;6.33;5.80;;;;;;;;;;5078039;28;20196;-81
2022/04/17 03:32:51;;;;;;;4.73;4.33;;;;;;;;;;5078164;28;20200;-81
2022/04/17 03:35:18;;;;;;;5.40;4.97;;;;;;;;;;5077878;28;20201;-81
2022/04/17 03:37:46;;;;;;;5.53;5.00;;;;;;;;;;5075625;28;20237;-81
2022/04/17 03:40:15;;;;;;;8.27;5.60;;;;;;;;;;5074391;28;20670;-81
2022/04/17 03:42:43;;;;;;;7.40;5.73;;;;;;;;;;5074858;28;20203;-81
2022/04/17 03:45:14;;;;;;;7.77;6.07;;;;;;;;;;5074281;28;20713;-81
2022/04/17 03:47:42;;;;;;;6.83;5.97;;;;;;;;;;5074358;28;20238;-81
2022/04/17 03:50:12;;;;;;;7.17;6.00;;;;;;;;;;5074181;28;20197;-81
2022/04/17 03:52:40;;;;;;;6.67;5.97;;;;;;;;;;5074680;28;20284;-81
2022/04/17 03:55:08;;;;;;;6.73;6.03;;;;;;;;;;5073966;28;20197;-81
2022/04/17 03:57:35;;;;;;;6.87;6.23;;;;;;;;;;5074645;28;20207;-81
2022/04/17 04:00:04;;;;;;;6.90;6.20;;;;;;;;;;5074095;28;20203;-81
2022/04/17 04:02:31;;;;;;;7.70;6.90;;;;;;;;;;5074166;28;20577;-81
2022/04/17 04:04:58;;;;;;;7.10;6.40;;;;;;;;;;5073987;28;20597;-83
2022/04/17 04:07:28;;;;;;;7.07;6.37;;;;;;;;;;5074383;28;20197;-82
2022/04/17 04:09:55;;;;;;;7.30;6.70;;;;;;;;;;5073906;28;20237;-83
2022/04/17 04:12:22;;;;;;;8.63;7.77;;;;;;;;;;5073794;28;20200;-82
2022/04/17 04:14:52;;;;;;;9.93;7.67;;;;;;;;;;5073850;28;20279;-82
2022/04/17 04:17:19;;;;;;;8.03;7.23;;;;;;;;;;5073928;28;20208;-81
2022/04/17 04:19:47;;;;;;;8.00;7.20;;;;;;;;;;5073648;28;20201;-81
2022/04/17 04:22:14;;;;;;;7.60;6.90;;;;;;;;;;5073851;28;20201;-82
2022/04/17 04:24:42;;;;;;;7.30;6.60;;;;;;;;;;5073295;28;20201;-81
2022/04/17 04:29:57;;;;;;;7.80;7.07;;;;;;;;;;5073695;28;20196;-81
2022/04/17 04:32:24;;;;;;;8.43;7.73;;;;;;;;;;5073367;28;20204;-81
2022/04/17 04:34:53;;;;;;;8.40;7.60;;;;;;;;;;5073447;28;20197;-81
2022/04/17 04:37:23;;;;;;;9.07;7.73;;;;;;;;;;5073526;28;20601;-81
2022/04/17 04:39:52;;;;;;;8.73;7.93;;;;;;;;;;5073300;28;20205;-81
2022/04/17 04:42:19;;;;;;;11.20;8.63;;;;;;;;;;5073231;28;20207;-81
2022/04/17 04:44:47;;;;;;;9.00;8.23;;;;;;;;;;5073271;28;20196;-81
2022/04/17 04:47:14;;;;;;;16.33;12.83;;;;;;;;;;5073301;28;20220;-81
2022/04/17 04:49:40;;;;;;;12.23;11.03;;;;;;;;;;5071711;28;20677;-81
2022/04/17 04:52:07;;;;;;;13.30;12.20;;;;;;;;;;5073249;28;20208;-82
2022/04/17 04:54:36;;;;;;;16.53;15.10;;;;;;;;;;5073057;28;20197;-81
2022/04/17 04:57:08;;;;;;;35.50;32.47;;;;;;;;;;5073146;28;20198;-82
2022/04/17 04:59:35;;;;;;;19.70;17.83;;;;;;;;;;5072846;28;20247;-82
2022/04/17 05:02:02;;;;;;;12.77;11.67;;;;;;;;;;5072773;28;20205;-82
2022/04/17 05:04:29;;;;;;;11.00;9.60;;;;;;;;;;5072699;28;20197;-82
2022/04/17 05:06:57;;;;;;;8.57;7.80;;;;;;;;;;5072816;28;20231;-82
2022/04/17 05:09:24;;;;;;;10.00;9.10;;;;;;;;;;5072453;28;20201;-82
2022/04/17 05:12:00;;;;;;;10.33;9.33;;;;;;;;;;5072783;28;20203;-82
2022/04/17 05:14:29;;;;;;;10.20;9.40;;;;;;;;;;5072509;28;20197;-82
2022/04/17 05:16:56;;;;;;;41.43;29.10;;;;;;;;;;5072641;28;20213;-83
2022/04/17 05:19:32;;;;;;;18.83;15.90;;;;;;;;;;5073429;28;20189;-83
2022/04/17 05:22:10;;;;;;;34.73;26.67;;;;;;;;;;5072755;28;20231;-82
2022/04/17 05:24:38;;;;;;;43.53;33.07;;;;;;;;;;5072361;28;20197;-83
2022/04/17 05:27:05;;;;;;;23.73;21.23;;;;;;;;;;5072827;28;20229;-83
2022/04/17 05:29:34;;;;;;;43.83;35.73;;;;;;;;;;5072198;28;20208;-84
2022/04/17 05:32:08;;;;;;;34.13;30.33;;;;;;;;;;5072590;28;20197;-84
2022/04/17 05:34:36;;;;;;;18.00;16.23;;;;;;;;;;5072244;28;20661;-84
2022/04/17 05:37:07;;;;;;;15.90;14.40;;;;;;;;;;5072084;28;20552;-84
2022/04/17 05:39:37;;;;;;;33.73;27.30;;;;;;;;;;5072114;28;20196;-84
2022/04/17 05:42:10;;;;;;;18.77;15.90;;;;;;;;;;5071952;28;20197;-85
2022/04/17 05:44:52;;;;;;;14.90;13.50;;;;;;;;;;5072421;28;20193;-85
2022/04/17 05:47:20;;;;;;;16.37;14.80;;;;;;;;;;5072167;28;20223;-85
2022/04/17 05:49:47;;;;;;;12.83;11.53;;;;;;;;;;5071752;28;20689;-85
2022/04/17 05:52:14;;;;;;;9.37;8.50;;;;;;;;;;5072436;28;20583;-85
2022/04/17 05:54:43;;;;;;;11.87;10.40;;;;;;;;;;5071750;28;20203;-85
2022/04/17 05:57:10;;;;;;;10.43;8.30;;;;;;;;;;5072007;28;20696;-85
2022/04/17 05:59:44;;;;;;;8.13;7.33;;;;;;;;;;5071936;28;20282;-85
2022/04/17 06:02:15;;;;;;;24.37;15.10;;;;;;;;;;5071523;28;20196;-85
2022/04/17 06:04:43;;;;;;;17.50;13.83;;;;;;;;;;5071812;28;20201;-85
2022/04/17 06:07:10;;;;;;;12.33;11.13;;;;;;;;;;5071884;28;20224;-85
2022/04/17 06:09:46;;;;;;;9.43;8.53;;;;;;;;;;5071365;28;20576;-85
2022/04/17 06:12:13;;;;;;;89.07;51.00;;;;;;;;;;5071951;28;20199;-85
2022/04/17 06:14:40;;;;;;;77.03;48.30;;;;;;;;;;5072041;28;20197;-86
2022/04/17 06:17:07;;;;;;;68.30;41.10;;;;;;;;;;5071797;28;20200;-85
2022/04/17 06:19:37;;;;;;;39.30;27.83;;;;;;;;;;5071328;28;20197;-85
2022/04/17 06:22:10;;;;;;;26.40;20.70;;;;;;;;;;5072113;28;20193;-85
2022/04/17 06:24:37;;;;;;;17.57;15.73;;;;;;;;;;5071438;28;20189;-85
2022/04/17 06:27:07;;;;;;;28.80;25.30;;;;;;;;;;5071573;28;20231;-85
2022/04/17 06:29:35;;;;;;;11.80;10.67;;;;;;;;;;5071363;28;20203;-85
2022/04/17 06:32:02;;;;;;;9.57;8.73;;;;;;;;;;5071747;28;20669;-85
2022/04/17 06:34:29;;;;;;;9.53;8.27;;;;;;;;;;5071519;28;20205;-85
2022/04/17 06:36:58;;;;;;;11.57;10.53;;;;;;;;;;5071473;28;20220;-85
2022/04/17 06:39:25;;;;;;;10.33;9.33;;;;;;;;;;5071620;28;20197;-85
2022/04/17 06:41:54;;;;;;;7.57;6.97;;;;;;;;;;5071396;28;20197;-85
2022/04/17 06:44:21;;;;;;;8.47;7.67;;;;;;;;;;5071693;28;20631;-85
2022/04/17 06:46:49;;;;;;;22.63;18.63;;;;;;;;;;5071521;28;20227;-84
2022/04/17 06:49:16;;;;;;;10.23;8.80;;;;;;;;;;5071394;28;20235;-84
2022/04/17 06:51:43;;;;;;;17.13;14.13;;;;;;;;;;5071556;28;20196;-84
2022/04/17 06:54:12;;;;;;;27.70;16.37;;;;;;;;;;5071418;28;20223;-84
2022/04/17 06:56:39;;;;;;;16.37;13.43;;;;;;;;;;5071417;28;20284;-84
2022/04/17 06:59:09;;;;;;;17.03;15.10;;;;;;;;;;5071551;28;20588;-84
2022/04/17 07:01:37;;;;;;;9.00;8.07;;;;;;;;;;5071294;28;20283;-84
2022/04/17 07:04:04;;;;;;;40.10;30.43;;;;;;;;;;5071228;28;20692;-84
2022/04/17 07:06:31;;;;;;;4.07;3.77;;;;;;;;;;5071196;28;20232;-84
2022/04/17 07:08:58;;;;;;;3.07;2.77;;;;;;;;;;5071226;28;20197;-84
2022/04/17 07:11:33;;;;;;;2.10;2.00;;;;;;;;;;5071561;28;20215;-84
2022/04/17 07:14:03;;;;;;;2.40;2.20;;;;;;;;;;5073017;28;20976;-84
2022/04/17 07:16:30;;;;;;;2.37;2.27;;;;;;;;;;5075038;28;20695;-84
2022/04/17 07:18:57;;;;;;;2.50;2.30;;;;;;;;;;5074953;28;20296;-84
2022/04/17 07:21:27;;;;;;;2.53;2.10;;;;;;;;;;5074739;28;20197;-83
2022/04/17 07:23:55;;;;;;;2.73;2.53;;;;;;;;;;5075022;28;20259;-84
2022/04/17 07:26:22;;;;;;;2.63;2.43;;;;;;;;;;5074812;28;20227;-83
2022/04/17 07:28:50;;;;;;;3.83;2.50;;;;;;;;;;5074479;28;20201;-83
2022/04/17 07:31:18;;;;;;;3.27;2.97;;;;;;;;;;5074777;28;20582;-84
2022/04/17 07:33:45;;;;;;;3.30;3.00;;;;;;;;;;5074645;28;20201;-83
2022/04/17 07:36:12;;;;;;;3.70;3.40;;;;;;;;;;5074239;28;20197;-82
2022/04/17 07:38:40;;;;;;;2.93;2.70;;;;;;;;;;5074649;28;20197;-84
2022/04/17 07:41:10;;;;;;;4.47;4.10;;;;;;;;;;5074566;28;20197;-83
2022/04/17 07:43:37;;;;;;;6.07;5.57;;;;;;;;;;5074507;28;20670;-83
2022/04/17 07:46:06;;;;;;;3.87;3.50;;;;;;;;;;5074429;28;20207;-83
2022/04/17 07:48:33;;;;;;;2.80;2.60;;;;;;;;;;5074789;28;20201;-83
2022/04/17 07:51:00;;;;;;;4.73;3.87;;;;;;;;;;5074041;28;20193;-83
2022/04/17 07:53:28;;;;;;;2.60;2.40;;;;;;;;;;5074473;28;20235;-83
2022/04/17 07:55:56;;;;;;;2.07;1.80;;;;;;;;;;5074208;28;20223;-83
2022/04/17 07:58:34;;;;;;;2.57;2.37;;;;;;;;;;5074298;28;20208;-83
2022/04/17 08:01:11;;;;;;;2.83;2.63;;;;;;;;;;5073960;28;20185;-82
2022/04/17 08:03:47;;;;;;;2.57;2.37;;;;;;;;;;5073985;28;20646;-82
2022/04/17 08:06:16;;;;;;;3.27;3.07;;;;;;;;;;5074022;28;20209;-83
2022/04/17 08:08:44;;;;;;;3.77;3.47;;;;;;;;;;5073989;28;20196;-83
2022/04/17 08:11:11;;;;;;;3.77;3.50;;;;;;;;;;5073856;28;20193;-82
2022/04/17 08:13:39;;;;;;;5.43;5.03;;;;;;;;;;5073852;28;20204;-83
2022/04/17 08:16:10;;;;;;;6.27;5.67;;;;;;;;;;5073470;28;20203;-83
2022/04/17 08:18:37;;;;;;;4.97;4.57;;;;;;;;;;5073900;28;20715;-82
2022/04/17 08:21:05;;;;;;;6.63;6.13;;;;;;;;;;5074074;28;20590;-83
2022/04/17 08:23:32;;;;;;;6.77;6.17;;;;;;;;;;5073386;28;20197;-83
2022/04/17 08:26:09;;;;;;;6.30;5.73;;;;;;;;;;5073519;28;20772;-83
2022/04/17 08:28:36;;;;;;;9.50;8.60;;;;;;;;;;5073662;28;20284;-83
2022/04/17 08:31:03;;;;;;;7.30;6.60;;;;;;;;;;5073522;28;20672;-83
2022/04/17 08:33:32;;;;;;;9.93;9.03;;;;;;;;;;5073922;28;20209;-83
2022/04/17 08:36:04;;;;;;;9.07;8.17;;;;;;;;;;5073194;28;20207;-83
2022/04/17 08:38:31;;;;;;;10.53;8.47;;;;;;;;;;5073193;28;20239;-82
2022/04/17 08:40:59;;;;;;;7.40;6.70;;;;;;;;;;5073299;28;20208;-83
2022/04/17 08:43:30;;;;;;;7.87;7.17;;;;;;;;;;5073251;28;20196;-83
2022/04/17 08:45:57;;;;;;;7.23;6.53;;;;;;;;;;5073516;28;20225;-83
2022/04/17 08:48:24;;;;;;;8.47;7.67;;;;;;;;;;5073105;28;20683;-83
2022/04/17 08:50:53;;;;;;;8.03;7.33;;;;;;;;;;5073058;28;20197;-83
2022/04/17 08:53:34;;;;;;;8.20;7.33;;;;;;;;;;5073350;28;20204;-83
2022/04/17 08:56:07;;;;;;;6.33;5.83;;;;;;;;;;5073345;28;20200;-83
2022/04/17 08:58:35;;;;;;;6.27;5.70;;;;;;;;;;5073137;28;20280;-83
2022/04/17 09:01:02;;;;;;;6.23;5.70;;;;;;;;;;5072712;28;20200;-83
2022/04/17 09:03:32;;;;;;;14.27;10.83;;;;;;;;;;5073008;28;20193;-83
2022/04/17 09:06:01;;;;;;;37.73;24.80;;;;;;;;;;5072581;28;20208;-82
2022/04/17 09:08:28;;;;;;;8.33;7.50;;;;;;;;;;5073209;28;20251;-82
2022/04/17 09:10:57;;;;;;;7.40;6.70;;;;;;;;;;5072436;28;20201;-82
2022/04/17 09:13:29;;;;;;;7.97;7.17;;;;;;;;;;5073080;28;20598;-83
2022/04/17 09:16:03;;;;;;;7.20;6.53;;;;;;;;;;5072503;28;20288;-82
2022/04/17 09:18:31;;;;;;;40.53;36.03;;;;;;;;;;5072724;28;20200;-83
2022/04/17 09:21:02;;;;;;;46.17;32.30;;;;;;;;;;5072791;28;20284;-82
2022/04/17 09:23:35;;;;;;;17.23;13.77;;;;;;;;;;5072384;28;20654;-83
2022/04/17 09:26:02;;;;;;;19.73;14.10;;;;;;;;;;5072423;28;20228;-83
2022/04/17 09:28:33;;;;;;;15.37;13.03;;;;;;;;;;5072368;28;20225;-83
2022/04/17 09:31:02;;;;;;;18.40;16.07;;;;;;;;;;5072079;28;20215;-83
2022/04/17 09:33:50;;;;;;;27.43;22.20;;;;;;;;;;5072467;28;20197;-83
2022/04/17 09:36:18;;;;;;;9.83;8.83;;;;;;;;;;5071315;28;20678;-84
2022/04/17 09:38:47;;;;;;;9.70;8.17;;;;;;;;;;5072602;28;20564;-82
2022/04/17 09:41:14;;;;;;;35.37;20.17;;;;;;;;;;5072173;28;20254;-83
2022/04/17 09:43:47;;;;;;;14.50;10.20;;;;;;;;;;5072255;28;20276;-83
2022/04/17 09:46:15;;;;;;;41.30;27.43;;;;;;;;;;5072121;28;20220;-83
2022/04/17 09:48:44;;;;;;;28.50;24.23;;;;;;;;;;5071989;28;20232;-83
2022/04/17 09:51:23;;;;;;;8.93;8.03;;;;;;;;;;5071824;28;20239;-83
2022/04/17 09:53:57;;;;;;;59.37;38.97;;;;;;;;;;5072000;28;20200;-82
2022/04/17 09:56:31;;;;;;;83.07;71.50;;;;;;;;;;5072431;28;20200;-83
2022/04/17 09:58:59;;;;;;;16.30;14.80;;;;;;;;;;5072043;28;20200;-82
2022/04/17 10:01:27;;;;;;;12.00;11.00;;;;;;;;;;5072386;28;20201;-82
2022/04/17 10:03:55;;;;;;;4.10;3.80;;;;;;;;;;5071903;28;20197;-81
2022/04/17 10:06:25;;;;;;;3.83;3.53;;;;;;;;;;5071937;28;20687;-83
2022/04/17 10:08:58;;;;;;;4.23;3.83;;;;;;;;;;5071682;28;20701;-81
2022/04/17 10:11:27;;;;;;;2.87;2.63;;;;;;;;;;5071681;28;20203;-82
2022/04/17 10:14:03;;;;;;;6.37;5.63;;;;;;;;;;5071979;28;20580;-81
2022/04/17 10:16:32;;;;;;;6.03;5.43;;;;;;;;;;5072095;28;20201;-81
2022/04/17 10:19:01;;;;;;;71.07;38.77;;;;;;;;;;5071591;28;20197;-81
2022/04/17 10:21:40;;;;;;;3.47;3.17;;;;;;;;;;5071495;28;20200;-82
2022/04/17 10:24:07;;;;;;;1.80;1.70;;;;;;;;;;5071583;28;20208;-81
2022/04/17 10:26:40;;;;;;;1.63;1.50;;;;;;;;;;5071757;28;20665;-81
2022/04/17 10:29:11;;;;;;;0.80;0.80;;;;;;;;;;5071387;28;20191;-82
2022/04/17 10:31:44;;;;;;;0.77;0.77;;;;;;;;;;5071642;28;20287;-82
2022/04/17 10:34:33;;;;;;;0.50;0.50;;;;;;;;;;5071523;28;20276;-82
2022/04/17 10:37:23;;;;;;;0.70;0.70;;;;;;;;;;5071537;28;20239;-82
2022/04/17 10:39:54;;;;;;;0.90;0.90;;;;;;;;;;5071785;28;20189;-82
2022/04/17 10:42:24;;;;;;;2.17;1.10;;;;;;;;;;5071792;28;20609;-83
2022/04/17 10:45:02;;;;;;;2.00;1.30;;;;;;;;;;5071262;28;20204;-81
2022/04/17 10:47:30;;;;;;;2.80;1.77;;;;;;;;;;5073402;28;20209;-82
2022/04/17 10:50:00;;;;;;;0.90;0.90;;;;;;;;;;5075694;28;20201;-82
2022/04/17 10:52:31;;;;;;;3.37;2.30;;;;;;;;;;5075332;28;20258;-82
2022/04/17 10:55:09;;;;;;;3.10;2.80;;;;;;;;;;5075587;28;20181;-82
2022/04/17 10:57:44;;;;;;;0.67;0.67;;;;;;;;;;5075842;28;20242;-82
2022/04/17 11:00:32;;;;;;;2.43;1.97;;;;;;;;;;5075603;28;20608;-81
2022/04/17 11:03:10;;;;;;;1.03;1.00;;;;;;;;;;5075159;28;20185;-82
2022/04/17 11:08:24;;;;;;;1.50;1.40;;;;;;;;;;5074902;28;20724;-82
2022/04/17 11:10:57;;;;;;;2.20;1.47;;;;;;;;;;5075361;28;20638;-81
2022/04/17 11:13:26;;;;;;;0.70;0.70;;;;;;;;;;5074897;28;20181;-82
2022/04/17 11:15:56;;;;;;;1.00;1.00;;;;;;;;;;5075202;28;20203;-82
2022/04/17 11:18:25;;;;;;;5.57;4.30;;;;;;;;;;5075328;28;20197;-82
2022/04/17 11:20:54;;;;;;;6.80;5.30;;;;;;;;;;5074888;28;20204;-81
2022/04/17 11:23:59;;;;;;;1.40;1.23;;;;;;;;;;5074947;28;20197;-82
2022/04/17 11:27:00;;;;;;;1.93;1.83;;;;;;;;;;5074796;28;20284;-82
2022/04/17 11:29:37;;;;;;;2.60;2.40;;;;;;;;;;5074451;28;20201;-82
2022/04/17 11:32:30;;;;;;;5.97;4.87;;;;;;;;;;5074708;28;20680;-82
2022/04/17 11:34:58;;;;;;;3.30;3.10;;;;;;;;;;5074332;28;20645;-82
2022/04/17 11:37:26;;;;;;;1.00;1.00;;;;;;;;;;5074489;28;20323;-82
2022/04/17 11:39:57;;;;;;;4.60;4.13;;;;;;;;;;5074431;28;20196;-82
2022/04/17 11:42:29;;;;;;;18.80;14.30;;;;;;;;;;5074244;28;20185;-82
2022/04/17 11:45:01;;;;;;;7.57;5.57;;;;;;;;;;5074363;28;20205;-82
2022/04/17 11:47:29;;;;;;;1.13;1.13;;;;;;;;;;5074484;28;20594;-82
2022/04/17 11:49:56;;;;;;;3.30;2.27;;;;;;;;;;5074077;28;20193;-83
2022/04/17 11:52:24;;;;;;;2.37;1.80;;;;;;;;;;5074380;28;20291;-82
2022/04/17 11:54:53;;;;;;;2.47;2.27;;;;;;;;;;5074118;28;20570;-82
2022/04/17 11:57:21;;;;;;;1.73;1.63;;;;;;;;;;5074389;28;20201;-83
2022/04/17 11:59:50;;;;;;;1.50;1.40;;;;;;;;;;5073206;28;20201;-82
2022/04/17 12:02:18;;;;;;;2.43;2.23;;;;;;;;;;5074120;28;20193;-83
2022/04/17 12:04:53;;;;;;;11.20;7.63;;;;;;;;;;5074046;28;20197;-83
2022/04/17 12:07:21;;;;;;;4.10;3.70;;;;;;;;;;5073802;28;20206;-83
2022/04/17 12:09:49;;;;;;;2.93;2.63;;;;;;;;;;5073810;28;20201;-83
2022/04/17 12:12:17;;;;;;;9.83;7.37;;;;;;;;;;5074078;28;20193;-83
2022/04/17 12:14:55;;;;;;;65.73;35.90;;;;;;;;;;5074095;28;20189;-82
2022/04/17 12:17:22;;;;;;;13.03;9.10;;;;;;;;;;5073879;28;20185;-83
2022/04/17 12:19:50;;;;;;;29.57;18.90;;;;;;;;;;5073742;28;20205;-83
2022/04/17 12:22:20;;;;;;;12.67;7.17;;;;;;;;;;5073917;28;20254;-82
2022/04/17 12:24:54;;;;;;;5.33;4.47;;;;;;;;;;5073782;28;20189;-83
2022/04/17 12:27:22;;;;;;;17.77;9.67;;;;;;;;;;5073698;28;20193;-83
2022/04/17 12:29:50;;;;;;;9.47;5.77;;;;;;;;;;5073607;28;20200;-83
2022/04/17 12:32:21;;;;;;;1.40;1.30;;;;;;;;;;5073675;28;20255;-83
2022/04/17 12:34:58;;;;;;;0.90;0.90;;;;;;;;;;5073260;28;20185;-83
2022/04/17 12:37:33;;;;;;;3.83;3.27;;;;;;;;;;5073394;28;20228;-83
2022/04/17 12:40:10;;;;;;;1.80;1.70;;;;;;;;;;5073361;28;20605;-83
2022/04/17 12:42:47;;;;;;;1.13;1.07;;;;;;;;;;5073281;28;20692;-83
2022/04/17 12:45:24;;;;;;;0.90;0.90;;;;;;;;;;5073526;28;20212;-83
2022/04/17 12:48:04;;;;;;;1.37;1.20;;;;;;;;;;5073555;28;20295;-83
2022/04/17 12:50:31;;;;;;;1.37;1.20;;;;;;;;;;5072943;28;20184;-83
2022/04/17 12:52:59;;;;;;;2.20;1.30;;;;;;;;;;5073178;28;20193;-82
2022/04/17 12:55:31;;;;;;;1.10;1.00;;;;;;;;;;5073366;28;20197;-83
2022/04/17 12:57:58;;;;;;;2.50;1.83;;;;;;;;;;5073500;28;20239;-82
2022/04/17 13:00:26;;;;;;;2.90;2.27;;;;;;;;;;5072877;28;20193;-83
2022/04/17 13:03:10;;;;;;;2.33;2.07;;;;;;;;;;5072807;28;20197;-83
2022/04/17 13:05:37;;;;;;;1.80;1.63;;;;;;;;;;5072909;28;20193;-83
2022/04/17 13:08:08;;;;;;;2.40;2.17;;;;;;;;;;5073024;28;20244;-82
2022/04/17 13:10:36;;;;;;;1.60;1.50;;;;;;;;;;5071811;28;20223;-83
2022/04/17 13:13:06;;;;;;;0.90;0.90;;;;;;;;;;5072716;28;20193;-83
2022/04/17 13:15:34;;;;;;;0.83;0.83;;;;;;;;;;5072648;28;20189;-83
2022/04/17 13:18:02;;;;;;;1.37;1.27;;;;;;;;;;5072744;28;20199;-83
2022/04/17 13:20:33;;;;;;;1.40;1.30;;;;;;;;;;5072295;28;20236;-83
2022/04/17 13:23:00;;;;;;;2.70;2.50;;;;;;;;;;5072693;28;20633;-83
2022/04/17 13:25:27;;;;;;;2.83;2.57;;;;;;;;;;5072453;28;20303;-83
2022/04/17 13:27:54;;;;;;;2.73;2.53;;;;;;;;;;5072764;28;20632;-83
2022/04/17 13:30:25;;;;;;;2.10;1.90;;;;;;;;;;5072110;28;20203;-83
2022/04/17 13:32:58;;;;;;;0.80;0.80;;;;;;;;;;5072448;28;20204;-83
2022/04/17 13:35:25;;;;;;;0.80;0.80;;;;;;;;;;5072631;28;20279;-83
2022/04/17 13:38:12;;;;;;;0.50;0.50;;;;;;;;;;5072348;28;20615;-82
2022/04/17 13:40:39;;;;;;;0.80;0.80;;;;;;;;;;5072078;28;20639;-82
2022/04/17 13:43:07;;;;;;;0.60;0.60;;;;;;;;;;5072271;28;20204;-82
2022/04/17 13:45:35;;;;;;;0.70;0.70;;;;;;;;;;5072164;28;20197;-82
2022/04/17 13:48:07;;;;;;;0.50;0.50;;;;;;;;;;5071999;28;20217;-81
2022/04/17 13:50:37;;;;;;;0.60;0.60;;;;;;;;;;5072022;28;20204;-82
2022/04/17 13:53:07;;;;;;;0.60;0.60;;;;;;;;;;5072544;28;20241;-82
2022/04/17 13:55:45;;;;;;;0.37;0.37;;;;;;;;;;5071930;28;20562;-82
2022/04/17 13:58:12;;;;;;;0.40;0.40;;;;;;;;;;5072169;28;20601;-82
2022/04/17 14:00:39;;;;;;;0.40;0.40;;;;;;;;;;5072155;28;20279;-82
2022/04/17 14:03:06;;;;;;;1.33;0.47;;;;;;;;;;5072037;28;20740;-82
2022/04/17 14:05:36;;;;;;;0.40;0.40;;;;;;;;;;5071831;28;20692;-82
2022/04/17 14:08:08;;;;;;;0.43;0.43;;;;;;;;;;5071725;28;20578;-82
2022/04/17 14:10:36;;;;;;;0.40;0.40;;;;;;;;;;5071851;28;20190;-82
2022/04/17 14:13:06;;;;;;;0.60;0.60;;;;;;;;;;5071904;28;20197;-82
2022/04/17 14:15:33;;;;;;;0.73;0.73;;;;;;;;;;5071650;28;20197;-82
2022/04/17 14:18:00;;;;;;;0.87;0.87;;;;;;;;;;5071901;28;20196;-82
2022/04/17 14:20:28;;;;;;;0.40;0.40;;;;;;;;;;5071688;28;20197;-82
2022/04/17 14:22:56;;;;;;;1.07;0.93;;;;;;;;;;5071503;28;20197;-83
2022/04/17 14:25:24;;;;;;;0.43;0.43;;;;;;;;;;5071983;28;20280;-82
2022/04/17 14:27:52;;;;;;;0.40;0.40;;;;;;;;;;5071954;28;20279;-83
2022/04/17 14:30:19;;;;;;;7.13;5.93;;;;;;;;;;5071507;28;20212;-82
2022/04/17 14:32:47;;;;;;;2.37;2.17;;;;;;;;;;5071534;28;20197;-83
2022/04/17 14:35:15;;;;;;;0.90;0.90;;;;;;;;;;5071354;28;20712;-83
2022/04/17 14:37:51;;;;;;;1.60;1.50;;;;;;;;;;5071328;28;20238;-83
2022/04/17 14:40:18;;;;;;;0.93;0.90;;;;;;;;;;5071502;28;20200;-83
2022/04/17 14:42:46;;;;;;;1.60;1.37;;;;;;;;;;5071766;28;20216;-83
2022/04/17 14:45:24;;;;;;;1.67;1.57;;;;;;;;;;5071784;28;20201;-83
2022/04/17 14:47:51;;;;;;;2.47;2.27;;;;;;;;;;5071431;28;20185;-82
2022/04/17 14:50:22;;;;;;;1.80;1.60;;;;;;;;;;5071273;28;20231;-83
2022/04/17 14:52:50;;;;;;;1.80;1.60;;;;;;;;;;5071833;28;20342;-83
2022/04/17 14:55:23;;;;;;;1.13;1.10;;;;;;;;;;5071283;28;20197;-83
2022/04/17 14:57:52;;;;;;;0.70;0.70;;;;;;;;;;5071543;28;20223;-83
2022/04/17 15:00:19;;;;;;;1.73;1.63;;;;;;;;;;5071140;28;20755;-84
2022/04/17 15:02:46;;;;;;;0.43;0.43;;;;;;;;;;5071366;28;20284;-84
2022/04/17 15:05:14;;;;;;;0.50;0.50;;;;;;;;;;5071185;28;20721;-83